Time;durP1;ratioP1;P1;durP2;ratioP2;P2;SDS_P1;SDS_P2;PMS_P1;PMS_P2;Temp;Humidity;BMP_temperature;BMP_pressure;BME280_temperature;BME280_humidity;BME280_pressure;Samples;Min_cycle;Max_cycle;Signal;HPM_P1;HPM_P2
2022/03/12 00:01:44;;;;;;;10.98;7.50;;;21.90;38.30;;;;;;5003731;28;20034;-66
2022/03/12 00:04:10;;;;;;;11.13;6.82;;;21.90;38.40;;;;;;5004361;28;20091;-67
2022/03/12 00:06:36;;;;;;;11.65;7.05;;;21.80;38.40;;;;;;5003652;28;20021;-68
2022/03/12 00:09:03;;;;;;;10.00;6.70;;;21.80;38.40;;;;;;5001171;28;20070;-66
2022/03/12 00:11:35;;;;;;;10.02;6.47;;;21.80;38.40;;;;;;5002133;28;20029;-68
2022/03/12 00:14:03;;;;;;;10.10;6.45;;;21.80;38.40;;;;;;5003377;28;20041;-68
2022/03/12 00:16:31;;;;;;;9.68;6.03;;;21.80;38.40;;;;;;5004066;28;20111;-66
2022/03/12 00:19:01;;;;;;;10.80;6.50;;;21.80;38.50;;;;;;5001574;28;20112;-66
2022/03/12 00:21:29;;;;;;;10.32;6.53;;;21.70;38.40;;;;;;5004827;28;20029;-67
2022/03/12 00:23:58;;;;;;;9.48;6.35;;;21.70;38.40;;;;;;5001477;28;20034;-68
2022/03/12 00:26:24;;;;;;;9.00;6.15;;;21.70;38.40;;;;;;5002591;28;20057;-68
2022/03/12 00:28:54;;;;;;;9.27;6.43;;;21.70;38.40;;;;;;5003668;28;20776;-68
2022/03/12 00:31:19;;;;;;;9.18;6.25;;;21.70;38.50;;;;;;5004980;28;20045;-69
2022/03/12 00:33:45;;;;;;;11.70;6.57;;;21.70;38.50;;;;;;5001661;28;20559;-68
2022/03/12 00:36:14;;;;;;;8.63;5.80;;;21.70;38.50;;;;;;5004405;28;20072;-67
2022/03/12 00:38:40;;;;;;;8.17;5.60;;;21.60;39.00;;;;;;5001564;28;20105;-66
2022/03/12 00:41:07;;;;;;;8.60;5.72;;;21.60;38.50;;;;;;5002882;28;20320;-68
2022/03/12 00:43:33;;;;;;;8.05;5.32;;;21.60;38.50;;;;;;4999481;28;20034;-66
2022/03/12 00:45:59;;;;;;;8.90;5.90;;;21.50;38.50;;;;;;5004576;28;20034;-66
2022/03/12 00:48:25;;;;;;;8.38;5.55;;;21.50;38.50;;;;;;5003804;28;20651;-67
2022/03/12 00:50:51;;;;;;;9.23;5.70;;;21.50;38.50;;;;;;5003711;28;20038;-66
2022/03/12 00:53:16;;;;;;;9.05;5.50;;;21.60;38.60;;;;;;5001905;28;20057;-68
2022/03/12 00:55:42;;;;;;;8.73;5.43;;;21.50;38.60;;;;;;5003289;28;20080;-68
2022/03/12 00:58:08;;;;;;;7.97;5.43;;;21.50;38.60;;;;;;4999502;28;20026;-66
2022/03/12 01:00:34;;;;;;;8.98;5.88;;;21.50;38.60;;;;;;5001998;28;20042;-67
2022/03/12 01:03:01;;;;;;;7.68;5.22;;;21.40;38.50;;;;;;5002773;28;20045;-67
2022/03/12 01:05:47;;;;;;;8.05;5.30;;;21.40;38.50;;;;;;5006769;28;20036;-67
2022/03/12 01:08:14;;;;;;;6.78;4.72;;;21.40;38.60;;;;;;5005735;28;20025;-67
2022/03/12 01:10:41;;;;;;;9.27;5.75;;;21.40;38.60;;;;;;5005602;28;20046;-68
2022/03/12 01:13:07;;;;;;;7.03;5.00;;;21.40;38.70;;;;;;5000924;28;20030;-68
2022/03/12 01:15:34;;;;;;;7.38;5.50;;;21.40;38.70;;;;;;5008340;28;20088;-69
2022/03/12 01:18:01;;;;;;;7.78;4.97;;;21.40;38.70;;;;;;5006767;28;20550;-66
2022/03/12 01:20:27;;;;;;;7.57;5.35;;;21.30;38.60;;;;;;5007280;28;20029;-66
2022/03/12 01:22:52;;;;;;;7.68;5.20;;;21.40;38.70;;;;;;5003927;28;20376;-66
2022/03/12 01:25:18;;;;;;;8.43;5.50;;;21.30;38.70;;;;;;5005352;28;20038;-67
2022/03/12 01:27:44;;;;;;;9.23;5.68;;;21.40;38.70;;;;;;5004205;28;20021;-68
2022/03/12 01:30:10;;;;;;;8.02;5.22;;;21.40;38.70;;;;;;5005756;28;20030;-67
2022/03/12 01:32:36;;;;;;;7.28;4.90;;;21.30;38.70;;;;;;5005042;28;20022;-68
2022/03/12 01:35:03;;;;;;;6.95;4.75;;;21.30;38.70;;;;;;5006820;28;20033;-68
2022/03/12 01:37:28;;;;;;;7.30;4.75;;;21.30;38.70;;;;;;5005549;28;20144;-68
2022/03/12 01:39:54;;;;;;;6.85;4.60;;;21.20;38.70;;;;;;5010718;28;20435;-68
2022/03/12 01:42:21;;;;;;;6.35;4.25;;;21.30;38.70;;;;;;5003181;28;20102;-66
2022/03/12 01:44:47;;;;;;;6.43;4.50;;;21.30;38.70;;;;;;5004958;28;20038;-66
2022/03/12 01:47:15;;;;;;;6.93;4.47;;;21.20;38.80;;;;;;5003468;28;20057;-66
2022/03/12 01:49:42;;;;;;;6.37;4.23;;;21.20;38.70;;;;;;5005480;28;20415;-68
2022/03/12 01:52:08;;;;;;;6.95;4.75;;;21.20;38.70;;;;;;5004854;28;20236;-68
2022/03/12 01:54:34;;;;;;;7.22;4.90;;;21.20;38.80;;;;;;5001843;28;20056;-68
2022/03/12 01:57:00;;;;;;;6.93;4.78;;;21.20;38.80;;;;;;4997720;28;20061;-68
2022/03/12 01:59:26;;;;;;;6.13;4.28;;;21.20;38.80;;;;;;5004065;28;20048;-66
2022/03/12 02:01:52;;;;;;;6.55;4.35;;;21.20;38.80;;;;;;5003855;28;20038;-66
2022/03/12 02:04:20;;;;;;;6.60;4.53;;;21.20;38.80;;;;;;5004188;28;20033;-67
2022/03/12 02:06:46;;;;;;;6.63;4.13;;;21.10;38.70;;;;;;5006097;28;20515;-68
2022/03/12 02:09:14;;;;;;;5.97;4.30;;;21.10;38.80;;;;;;5002244;28;20040;-68
2022/03/12 02:11:40;;;;;;;5.65;4.20;;;21.10;38.80;;;;;;5005639;28;20474;-66
2022/03/12 02:14:15;;;;;;;6.90;4.43;;;21.10;38.80;;;;;;5016922;28;20053;-66
2022/03/12 02:16:55;;;;;;;6.15;4.50;;;21.10;38.90;;;;;;5004745;28;20034;-66
2022/03/12 02:19:25;;;;;;;7.13;4.07;;;21.10;38.90;;;;;;5005285;28;20177;-66
2022/03/12 02:21:56;;;;;;;6.10;4.15;;;21.10;38.90;;;;;;5001614;28;20497;-68
2022/03/12 02:24:25;;;;;;;5.95;4.07;;;21.00;38.80;;;;;;5001847;28;20087;-68
2022/03/12 02:26:53;;;;;;;5.80;3.88;;;21.00;38.90;;;;;;4997480;28;20087;-67
2022/03/12 02:29:20;;;;;;;5.60;3.88;;;21.00;39.00;;;;;;5003824;28;20431;-68
2022/03/12 02:31:49;;;;;;;5.75;4.05;;;21.00;38.90;;;;;;5005807;28;20099;-67
2022/03/12 02:34:22;;;;;;;5.13;3.45;;;21.00;39.00;;;;;;5005259;28;20183;-67
2022/03/12 02:36:49;;;;;;;6.18;3.95;;;21.00;39.00;;;;;;5004463;28;20486;-68
2022/03/12 02:39:16;;;;;;;6.03;3.70;;;21.00;39.00;;;;;;5003236;28;20032;-67
2022/03/12 02:41:42;;;;;;;5.72;3.97;;;21.00;39.00;;;;;;5004282;28;20022;-66
2022/03/12 02:44:15;;;;;;;6.75;4.15;;;21.00;39.00;;;;;;5001824;28;20038;-67
2022/03/12 02:46:41;;;;;;;6.60;4.10;;;20.90;38.90;;;;;;5005656;28;20098;-66
2022/03/12 02:49:06;;;;;;;5.72;3.65;;;20.90;39.00;;;;;;5004893;28;20129;-67
2022/03/12 02:51:34;;;;;;;5.15;3.92;;;20.90;38.90;;;;;;5006508;28;20138;-66
2022/03/12 02:54:00;;;;;;;6.28;3.75;;;20.90;38.90;;;;;;5001040;28;20386;-68
2022/03/12 02:56:26;;;;;;;6.53;4.20;;;20.90;39.00;;;;;;5004085;28;20045;-66
2022/03/12 02:58:52;;;;;;;5.18;3.70;;;20.90;39.00;;;;;;5004562;28;20033;-66
2022/03/12 03:01:19;;;;;;;5.28;3.40;;;20.90;39.00;;;;;;5003115;28;20038;-66
2022/03/12 03:03:46;;;;;;;5.68;3.42;;;20.90;39.00;;;;;;4996791;28;20030;-66
2022/03/12 03:06:15;;;;;;;5.50;3.60;;;20.90;39.10;;;;;;5003917;28;20504;-68
2022/03/12 03:08:42;;;;;;;5.63;3.80;;;20.90;39.00;;;;;;5019574;28;20390;-66
2022/03/12 03:11:13;;;;;;;5.38;3.38;;;20.90;39.10;;;;;;5002476;28;20026;-68
2022/03/12 03:13:44;;;;;;;4.70;3.20;;;20.80;39.10;;;;;;5003037;28;20046;-66
2022/03/12 03:16:19;;;;;;;4.90;3.40;;;20.80;39.00;;;;;;4996785;28;20148;-66
2022/03/12 03:18:50;;;;;;;4.90;3.40;;;20.80;39.10;;;;;;5004084;28;20037;-66
2022/03/12 03:21:19;;;;;;;5.18;3.65;;;20.80;39.00;;;;;;5004648;28;20058;-67
2022/03/12 03:23:45;;;;;;;5.18;3.17;;;20.80;39.10;;;;;;5003015;28;20032;-68
2022/03/12 03:26:11;;;;;;;4.80;3.25;;;20.80;39.10;;;;;;5001960;28;20080;-68
2022/03/12 03:28:37;;;;;;;4.70;3.50;;;20.80;39.10;;;;;;5003663;28;20030;-68
2022/03/12 03:31:07;;;;;;;5.15;3.35;;;20.80;39.10;;;;;;5004552;28;20064;-67
2022/03/12 03:33:33;;;;;;;4.80;3.17;;;20.80;39.10;;;;;;5004343;28;20040;-68
2022/03/12 03:35:58;;;;;;;4.97;3.25;;;20.80;39.20;;;;;;5005007;28;20038;-66
2022/03/12 03:38:24;;;;;;;5.53;3.60;;;20.80;39.20;;;;;;5004218;28;20427;-66
2022/03/12 03:40:50;;;;;;;5.43;3.65;;;20.80;39.10;;;;;;5004179;28;20080;-66
2022/03/12 03:43:20;;;;;;;4.53;3.33;;;20.80;39.20;;;;;;5001917;28;20125;-66
2022/03/12 03:45:49;;;;;;;5.13;3.33;;;20.70;39.10;;;;;;5003078;28;20796;-67
2022/03/12 03:48:20;;;;;;;4.15;3.20;;;20.80;39.20;;;;;;5005604;28;20030;-68
2022/03/12 03:50:48;;;;;;;4.80;3.33;;;20.80;39.20;;;;;;5002324;28;20112;-68
2022/03/12 03:53:16;;;;;;;4.47;3.15;;;20.70;39.20;;;;;;5001405;28;20027;-65
2022/03/12 03:55:42;;;;;;;4.40;3.03;;;20.70;39.20;;;;;;5003344;28;20030;-67
2022/03/12 03:58:10;;;;;;;5.20;3.35;;;20.70;39.20;;;;;;5004014;28;20042;-66
2022/03/12 04:00:36;;;;;;;4.28;3.30;;;20.70;39.20;;;;;;5002576;28;20050;-68
2022/03/12 04:03:02;;;;;;;4.43;3.15;;;20.70;39.20;;;;;;5001086;28;20121;-65
2022/03/12 04:05:30;;;;;;;5.07;3.40;;;20.70;39.20;;;;;;5003376;28;20038;-65
2022/03/12 04:07:57;;;;;;;4.63;3.00;;;20.70;39.30;;;;;;5019129;28;20026;-67
2022/03/12 04:10:23;;;;;;;4.75;3.40;;;20.70;39.20;;;;;;5002682;28;20386;-64
2022/03/12 04:12:49;;;;;;;4.47;2.92;;;20.70;39.30;;;;;;5000982;28;20044;-68
2022/03/12 04:15:15;;;;;;;4.78;3.03;;;20.70;39.20;;;;;;5002754;28;20033;-65
2022/03/12 04:17:41;;;;;;;3.90;2.78;;;20.70;39.30;;;;;;5004292;28;20475;-67
2022/03/12 04:20:08;;;;;;;4.82;3.28;;;20.70;39.30;;;;;;5002649;28;20108;-65
2022/03/12 04:22:38;;;;;;;4.10;2.63;;;20.70;39.30;;;;;;5003831;28;20041;-65
2022/03/12 04:25:04;;;;;;;3.38;2.58;;;20.60;39.20;;;;;;5001024;28;20104;-67
2022/03/12 04:27:30;;;;;;;4.22;2.90;;;20.70;39.30;;;;;;5003085;28;20034;-65
2022/03/12 04:29:56;;;;;;;3.80;2.63;;;20.60;39.20;;;;;;5002687;28;20080;-65
2022/03/12 04:32:22;;;;;;;4.93;3.17;;;20.60;39.30;;;;;;5002477;28;20048;-68
2022/03/12 04:34:47;;;;;;;4.28;2.97;;;20.60;39.30;;;;;;5002683;28;20038;-64
2022/03/12 04:37:13;;;;;;;4.18;2.70;;;20.60;39.30;;;;;;5003751;28;20045;-68
2022/03/12 04:39:39;;;;;;;4.13;2.85;;;20.60;39.30;;;;;;5005480;28;20597;-65
2022/03/12 04:42:06;;;;;;;3.85;2.55;;;20.60;39.30;;;;;;5004763;28;20030;-65
2022/03/12 04:44:31;;;;;;;3.42;2.25;;;20.60;39.30;;;;;;5012791;28;20030;-66
2022/03/12 04:46:57;;;;;;;3.55;2.53;;;20.60;39.30;;;;;;5006469;28;20109;-64
2022/03/12 04:49:23;;;;;;;4.50;2.80;;;20.60;39.30;;;;;;5005727;28;20053;-65
2022/03/12 04:51:49;;;;;;;3.38;2.42;;;20.60;39.40;;;;;;5007400;28;20148;-67
2022/03/12 04:54:14;;;;;;;4.63;2.42;;;20.50;39.30;;;;;;5004434;28;20033;-65
2022/03/12 04:56:40;;;;;;;3.53;2.45;;;20.50;39.90;;;;;;5004164;28;20045;-67
2022/03/12 04:59:05;;;;;;;3.50;2.30;;;20.60;39.40;;;;;;5005545;28;20163;-65
2022/03/12 05:01:31;;;;;;;4.20;2.60;;;20.50;39.40;;;;;;5006836;28;20092;-65
2022/03/12 05:03:57;;;;;;;3.25;2.30;;;20.50;39.40;;;;;;5005535;28;20021;-65
2022/03/12 05:06:23;;;;;;;3.45;2.40;;;20.50;39.40;;;;;;5006081;28;20030;-66
2022/03/12 05:08:49;;;;;;;3.08;2.10;;;20.50;39.50;;;;;;5006437;28;20030;-68
2022/03/12 05:11:15;;;;;;;3.05;2.13;;;20.50;39.40;;;;;;5003525;28;20041;-65
2022/03/12 05:13:40;;;;;;;3.88;2.50;;;20.50;39.50;;;;;;5004407;28;20033;-66
2022/03/12 05:16:06;;;;;;;3.45;2.30;;;20.50;39.50;;;;;;5005461;28;20030;-65
2022/03/12 05:18:34;;;;;;;3.22;2.10;;;20.50;39.50;;;;;;5004649;28;20036;-67
2022/03/12 05:21:00;;;;;;;3.78;2.10;;;20.50;39.50;;;;;;5005044;28;20041;-68
2022/03/12 05:23:26;;;;;;;3.20;2.13;;;20.50;39.50;;;;;;5005996;28;20437;-68
2022/03/12 05:25:52;;;;;;;3.50;2.10;;;20.50;39.50;;;;;;5003926;28;20508;-65
2022/03/12 05:28:25;;;;;;;2.70;1.80;;;20.50;39.50;;;;;;5005287;28;20128;-68
2022/03/12 05:30:58;;;;;;;3.95;2.35;;;20.50;39.50;;;;;;5003450;28;20046;-67
2022/03/12 05:33:25;;;;;;;3.28;2.30;;;20.50;39.50;;;;;;5006617;28;20632;-65
2022/03/12 05:35:54;;;;;;;2.90;2.00;;;20.50;39.60;;;;;;5002215;28;20034;-66
2022/03/12 05:38:24;;;;;;;3.22;2.03;;;20.40;39.50;;;;;;5002662;28;20038;-66
2022/03/12 05:40:50;;;;;;;2.88;1.88;;;20.40;39.50;;;;;;5004117;28;20100;-68
2022/03/12 05:43:17;;;;;;;3.13;2.03;;;20.40;39.50;;;;;;5003830;28;20025;-67
2022/03/12 05:45:48;;;;;;;3.10;2.00;;;20.40;39.50;;;;;;5003372;28;20104;-68
2022/03/12 05:48:15;;;;;;;2.90;1.92;;;20.40;39.50;;;;;;5004386;28;20022;-65
2022/03/12 05:50:43;;;;;;;2.88;1.98;;;20.40;39.50;;;;;;5005084;28;20914;-65
2022/03/12 05:53:10;;;;;;;3.28;1.90;;;20.40;39.50;;;;;;5003451;28;20049;-65
2022/03/12 05:55:38;;;;;;;3.10;2.00;;;20.40;39.50;;;;;;5002220;28;20184;-67
2022/03/12 05:58:04;;;;;;;2.83;2.03;;;20.40;39.50;;;;;;5002871;28;20025;-68
2022/03/12 06:00:32;;;;;;;2.80;1.80;;;20.40;39.50;;;;;;5004383;28;20042;-65
2022/03/12 06:02:59;;;;;;;2.78;1.83;;;20.40;39.50;;;;;;5013021;28;20037;-65
2022/03/12 06:05:24;;;;;;;2.90;1.77;;;20.40;39.50;;;;;;5006641;28;20117;-66
2022/03/12 06:07:52;;;;;;;2.90;1.95;;;20.40;39.60;;;;;;5001144;28;20117;-67
2022/03/12 06:10:29;;;;;;;2.67;1.80;;;20.40;39.60;;;;;;5005034;28;20422;-67
2022/03/12 06:12:56;;;;;;;2.60;1.70;;;20.40;39.60;;;;;;5002245;28;20537;-67
2022/03/12 06:15:24;;;;;;;2.85;1.90;;;20.40;39.60;;;;;;5006124;28;20033;-66
2022/03/12 06:17:50;;;;;;;2.92;1.85;;;20.40;39.60;;;;;;5002980;28;20022;-68
2022/03/12 06:20:17;;;;;;;3.25;2.10;;;20.40;39.60;;;;;;5005355;28;20053;-68
2022/03/12 06:22:44;;;;;;;2.70;1.90;;;20.40;40.10;;;;;;5002521;28;20025;-67
2022/03/12 06:25:13;;;;;;;2.67;1.60;;;20.30;39.50;;;;;;4996845;28;20778;-65
2022/03/12 06:27:42;;;;;;;2.70;1.80;;;20.30;39.60;;;;;;5002820;28;21353;-67
2022/03/12 06:30:11;;;;;;;2.75;1.73;;;20.30;40.10;;;;;;5003313;28;20018;-65
2022/03/12 06:32:42;;;;;;;2.63;1.60;;;20.30;39.50;;;;;;5004917;28;20860;-65
2022/03/12 06:35:10;;;;;;;2.60;1.75;;;20.30;39.50;;;;;;5005675;28;20280;-68
2022/03/12 06:37:35;;;;;;;3.17;1.83;;;20.30;39.60;;;;;;5001465;28;20133;-67
2022/03/12 06:40:01;;;;;;;2.92;1.70;;;20.30;39.60;;;;;;5003274;28;20120;-67
2022/03/12 06:42:34;;;;;;;2.40;1.70;;;20.30;39.60;;;;;;4998767;28;20041;-68
2022/03/12 06:45:00;;;;;;;2.63;1.80;;;20.30;39.60;;;;;;4998711;28;20030;-68
2022/03/12 06:47:32;;;;;;;2.92;1.83;;;20.30;39.60;;;;;;5002700;28;20037;-65
2022/03/12 06:49:58;;;;;;;2.72;1.75;;;20.30;39.60;;;;;;5004496;28;20390;-65
2022/03/12 06:52:26;;;;;;;2.67;1.88;;;20.30;39.60;;;;;;5005284;28;20030;-67
2022/03/12 06:54:51;;;;;;;2.88;1.90;;;20.30;39.60;;;;;;4999768;28;20130;-68
2022/03/12 06:57:18;;;;;;;3.60;1.70;;;20.30;39.50;;;;;;5000011;28;20101;-67
2022/03/12 06:59:43;;;;;;;2.78;1.70;;;20.30;39.60;;;;;;5002624;28;20573;-65
2022/03/12 07:02:09;;;;;;;2.88;1.88;;;20.30;39.60;;;;;;5003493;28;20034;-66
2022/03/12 07:04:35;;;;;;;2.67;1.90;;;20.30;39.70;;;;;;5004230;28;20088;-65
2022/03/12 07:07:01;;;;;;;2.60;1.70;;;20.30;39.60;;;;;;5004629;28;20037;-67
2022/03/12 07:09:28;;;;;;;2.83;1.70;;;20.30;39.60;;;;;;5001551;28;20125;-62
2022/03/12 07:11:56;;;;;;;2.70;1.80;;;20.30;39.60;;;;;;5002912;28;20022;-66
2022/03/12 07:14:21;;;;;;;2.53;1.60;;;20.30;39.60;;;;;;5001646;28;20054;-63
2022/03/12 07:16:47;;;;;;;2.72;1.77;;;20.30;39.60;;;;;;5005046;28;20089;-66
2022/03/12 07:19:13;;;;;;;2.15;1.50;;;20.30;39.60;;;;;;5004133;28;20593;-66
2022/03/12 07:21:39;;;;;;;2.40;1.60;;;20.30;39.70;;;;;;5002386;28;20018;-66
2022/03/12 07:24:04;;;;;;;3.03;1.55;;;20.30;39.70;;;;;;5002399;28;20030;-67
2022/03/12 07:26:30;;;;;;;2.35;1.42;;;20.30;39.80;;;;;;5002730;28;20037;-66
2022/03/12 07:28:56;;;;;;;2.00;1.42;;;20.20;39.80;;;;;;5003493;28;20040;-67
2022/03/12 07:31:22;;;;;;;2.33;1.60;;;20.20;39.80;;;;;;5001875;28;20033;-65
2022/03/12 07:33:47;;;;;;;2.42;1.60;;;20.20;39.90;;;;;;5002244;28;20026;-65
2022/03/12 07:36:13;;;;;;;3.17;1.70;;;20.20;39.90;;;;;;5003554;28;20034;-67
2022/03/12 07:38:39;;;;;;;2.40;1.50;;;20.20;40.00;;;;;;5004304;28;20022;-66
2022/03/12 07:41:04;;;;;;;3.30;1.70;;;20.20;40.00;;;;;;5002556;28;20038;-64
2022/03/12 07:43:31;;;;;;;2.28;1.42;;;20.20;40.00;;;;;;5015854;28;20481;-67
2022/03/12 07:45:57;;;;;;;2.70;1.50;;;20.20;40.00;;;;;;5000958;28;20112;-67
2022/03/12 07:48:23;;;;;;;2.28;1.40;;;20.20;40.10;;;;;;5004147;28;20124;-62
2022/03/12 07:50:49;;;;;;;2.22;1.60;;;20.20;40.10;;;;;;5003524;28;20026;-67
2022/03/12 07:53:14;;;;;;;2.17;1.63;;;20.20;40.10;;;;;;4998126;28;20026;-66
2022/03/12 07:55:41;;;;;;;2.03;1.40;;;20.20;40.20;;;;;;4995981;28;20041;-66
2022/03/12 07:58:07;;;;;;;2.70;1.50;;;20.20;40.20;;;;;;5006259;28;20213;-66
2022/03/12 08:00:34;;;;;;;2.58;1.42;;;20.20;40.20;;;;;;5000769;28;20041;-67
2022/03/12 08:02:59;;;;;;;2.25;1.38;;;20.20;40.20;;;;;;4994735;28;20769;-62
2022/03/12 08:05:26;;;;;;;3.13;1.63;;;20.20;40.30;;;;;;4998773;28;20102;-67
2022/03/12 08:07:54;;;;;;;2.13;1.40;;;20.20;40.30;;;;;;5001388;28;20426;-66
2022/03/12 08:10:21;;;;;;;2.28;1.33;;;20.20;40.80;;;;;;4999940;28;20112;-63
2022/03/12 08:12:48;;;;;;;2.33;1.40;;;20.20;40.30;;;;;;5002616;28;20025;-66
2022/03/12 08:15:15;;;;;;;2.70;1.48;;;20.20;40.30;;;;;;5002663;28;20482;-64
2022/03/12 08:17:41;;;;;;;2.08;1.30;;;20.20;40.40;;;;;;5004961;28;20037;-66
2022/03/12 08:20:08;;;;;;;2.50;1.40;;;20.20;40.40;;;;;;5005710;28;20100;-67
2022/03/12 08:22:38;;;;;;;2.38;1.50;;;20.20;40.40;;;;;;5005846;28;20026;-67
2022/03/12 08:25:05;;;;;;;2.50;1.35;;;20.20;40.40;;;;;;5003496;28;20034;-66
2022/03/12 08:27:32;;;;;;;1.90;1.38;;;20.20;40.40;;;;;;5003984;28;20758;-67
2022/03/12 08:29:58;;;;;;;2.10;1.30;;;20.20;40.40;;;;;;5004000;28;20034;-67
2022/03/12 08:32:24;;;;;;;1.90;1.20;;;20.20;40.40;;;;;;5002731;28;20113;-67
2022/03/12 08:34:50;;;;;;;2.40;1.30;;;20.20;40.50;;;;;;5003258;28;20109;-66
2022/03/12 08:37:15;;;;;;;1.90;1.40;;;20.20;40.50;;;;;;5003647;28;20033;-67
2022/03/12 08:39:41;;;;;;;2.10;1.30;;;20.20;40.50;;;;;;4999190;28;20036;-68
2022/03/12 08:42:08;;;;;;;2.15;1.38;;;20.20;40.50;;;;;;5002200;28;20080;-67
2022/03/12 08:44:35;;;;;;;2.33;1.38;;;20.20;40.50;;;;;;5000925;28;20109;-67
2022/03/12 08:47:01;;;;;;;2.53;1.40;;;20.20;40.50;;;;;;5000114;28;20033;-67
2022/03/12 08:49:27;;;;;;;2.53;1.40;;;20.20;40.50;;;;;;5000470;28;20025;-67
2022/03/12 08:51:53;;;;;;;2.50;1.60;;;20.20;40.50;;;;;;5004193;28;20510;-66
2022/03/12 08:54:19;;;;;;;2.42;1.40;;;20.20;40.50;;;;;;5004153;28;20032;-67
2022/03/12 08:56:44;;;;;;;2.28;1.27;;;20.20;40.60;;;;;;5003233;28;20030;-65
2022/03/12 08:59:10;;;;;;;2.13;1.40;;;20.20;40.60;;;;;;5004547;28;20140;-67
2022/03/12 09:01:36;;;;;;;2.60;1.50;;;20.20;40.60;;;;;;5001858;28;20627;-66
2022/03/12 09:04:02;;;;;;;1.88;1.33;;;20.20;40.60;;;;;;5005213;28;20037;-63
2022/03/12 09:06:29;;;;;;;2.47;1.40;;;20.20;40.60;;;;;;5002218;28;20055;-66
2022/03/12 09:08:55;;;;;;;1.98;1.30;;;20.20;40.60;;;;;;5000980;28;20025;-64
2022/03/12 09:11:21;;;;;;;2.33;1.48;;;20.20;40.70;;;;;;5000233;28;20052;-66
2022/03/12 09:13:47;;;;;;;2.28;1.40;;;20.20;41.30;;;;;;5001668;28;20026;-67
2022/03/12 09:16:14;;;;;;;2.85;1.50;;;20.20;40.80;;;;;;5003078;28;20697;-65
2022/03/12 09:18:41;;;;;;;2.10;1.33;;;20.30;40.80;;;;;;5002909;28;20022;-67
2022/03/12 09:21:07;;;;;;;2.28;1.30;;;20.20;40.80;;;;;;5002527;28;20398;-68
2022/03/12 09:23:34;;;;;;;2.40;1.30;;;20.20;40.80;;;;;;5002277;28;20376;-66
2022/03/12 09:26:00;;;;;;;1.90;1.25;;;20.20;40.80;;;;;;4993883;28;20041;-66
2022/03/12 09:28:26;;;;;;;2.60;1.40;;;20.20;40.80;;;;;;5000160;28;20072;-64
2022/03/12 09:30:52;;;;;;;2.80;1.40;;;20.20;40.80;;;;;;5002003;28;20479;-66
2022/03/12 09:33:21;;;;;;;2.40;1.30;;;20.30;40.90;;;;;;5002578;28;20029;-65
2022/03/12 09:35:48;;;;;;;1.85;1.15;;;20.30;40.90;;;;;;5001841;28;20125;-67
2022/03/12 09:38:15;;;;;;;2.83;1.65;;;20.30;41.00;;;;;;5017053;28;20042;-63
2022/03/12 09:40:41;;;;;;;2.20;1.23;;;20.20;40.90;;;;;;5001309;28;20486;-65
2022/03/12 09:43:08;;;;;;;2.25;1.30;;;20.30;41.00;;;;;;5002242;28;20026;-66
2022/03/12 09:45:34;;;;;;;2.30;1.30;;;20.30;41.00;;;;;;5002330;28;20103;-65
2022/03/12 09:48:00;;;;;;;2.22;1.23;;;20.30;41.00;;;;;;5002234;28;20088;-67
2022/03/12 09:50:26;;;;;;;2.38;1.23;;;20.30;41.00;;;;;;5002219;28;20030;-66
2022/03/12 09:52:52;;;;;;;2.67;1.30;;;20.30;41.00;;;;;;5002059;28;20055;-65
2022/03/12 09:55:19;;;;;;;2.75;1.30;;;20.30;41.10;;;;;;4997489;28;20051;-67
2022/03/12 09:57:47;;;;;;;3.13;1.55;;;20.30;41.10;;;;;;4998471;28;20029;-64
2022/03/12 10:00:13;;;;;;;2.42;1.30;;;20.30;41.10;;;;;;5000106;28;20041;-63
2022/03/12 10:02:39;;;;;;;2.85;1.20;;;20.30;41.10;;;;;;5000281;28;20650;-65
2022/03/12 10:05:05;;;;;;;3.03;1.35;;;20.30;41.20;;;;;;5000749;28;20041;-65
2022/03/12 10:07:31;;;;;;;2.30;1.23;;;20.30;41.20;;;;;;5001833;28;20033;-65
2022/03/12 10:09:57;;;;;;;2.95;1.40;;;20.30;41.20;;;;;;5000287;28;20081;-65
2022/03/12 10:12:23;;;;;;;2.65;1.27;;;20.30;41.20;;;;;;5012542;28;20052;-67
2022/03/12 10:14:49;;;;;;;2.22;1.30;;;20.30;41.10;;;;;;5000005;28;20447;-66
2022/03/12 10:17:17;;;;;;;2.45;1.10;;;20.30;41.10;;;;;;5000645;28;20034;-62
2022/03/12 10:19:44;;;;;;;3.10;1.20;;;20.30;41.10;;;;;;5000194;28;20084;-67
2022/03/12 10:22:10;;;;;;;2.75;1.17;;;20.30;41.10;;;;;;5000742;28;20161;-63
2022/03/12 10:24:36;;;;;;;3.50;1.35;;;20.30;41.20;;;;;;5000608;28;20034;-66
2022/03/12 10:27:04;;;;;;;2.65;1.20;;;20.30;41.10;;;;;;5001269;28;20180;-66
2022/03/12 10:29:30;;;;;;;2.30;1.23;;;20.30;41.10;;;;;;5002379;28;20038;-67
2022/03/12 10:31:56;;;;;;;3.63;1.40;;;20.30;41.20;;;;;;5002161;28;20040;-63
2022/03/12 10:34:24;;;;;;;2.42;1.30;;;20.30;41.30;;;;;;4997313;28;20030;-66
2022/03/12 10:36:51;;;;;;;2.40;1.40;;;20.30;41.30;;;;;;5002709;28;20030;-65
2022/03/12 10:39:33;;;;;;;2.22;1.20;;;20.30;41.30;;;;;;5000840;28;20804;-67
2022/03/12 10:42:04;;;;;;;1.90;0.95;;;20.30;41.40;;;;;;5001487;28;20088;-65
2022/03/12 10:44:41;;;;;;;2.60;1.27;;;20.30;41.40;;;;;;5001915;28;20026;-67
2022/03/12 10:47:23;;;;;;;2.17;1.05;;;20.30;41.40;;;;;;5001593;28;20113;-63
2022/03/12 10:50:00;;;;;;;1.92;1.05;;;20.30;41.40;;;;;;5002312;28;20038;-64
2022/03/12 10:52:28;;;;;;;3.03;1.20;;;20.30;41.40;;;;;;5002944;28;20542;-66
2022/03/12 10:54:54;;;;;;;2.67;1.10;;;20.40;41.60;;;;;;4998933;28;20065;-67
2022/03/12 10:57:20;;;;;;;3.78;1.20;;;20.30;41.50;;;;;;4999854;28;20541;-68
2022/03/12 10:59:45;;;;;;;2.42;1.27;;;20.30;41.50;;;;;;4994726;28;20042;-66
2022/03/12 11:02:11;;;;;;;3.03;1.30;;;20.30;41.50;;;;;;4997530;28;20046;-66
2022/03/12 11:04:38;;;;;;;4.22;1.30;;;20.40;41.60;;;;;;5001518;28;20141;-67
2022/03/12 11:07:27;;;;;;;1.98;1.00;;;20.30;41.50;;;;;;5002681;28;20022;-66
2022/03/12 11:09:54;;;;;;;2.30;1.30;;;20.40;41.50;;;;;;5000050;28;20463;-67
2022/03/12 11:12:31;;;;;;;2.20;1.10;;;20.40;41.60;;;;;;4998840;28;20268;-67
2022/03/12 11:15:15;;;;;;;2.25;1.13;;;20.40;41.90;;;;;;5015916;28;20666;-66
2022/03/12 11:17:49;;;;;;;2.88;1.20;;;20.40;41.70;;;;;;5000699;28;20037;-66
2022/03/12 11:20:28;;;;;;;1.80;1.00;;;20.40;41.70;;;;;;5003465;28;20058;-66
2022/03/12 11:23:13;;;;;;;3.20;1.40;;;20.40;41.70;;;;;;4998977;28;20026;-66
2022/03/12 11:26:11;;;;;;;2.00;1.20;;;20.40;41.80;;;;;;4998098;28;20053;-67
2022/03/12 11:28:37;;;;;;;3.80;1.15;;;20.40;41.80;;;;;;4956920;28;20107;-68
2022/03/12 11:31:04;;;;;;;2.15;1.02;;;20.40;41.70;;;;;;4999380;28;20041;-67
2022/03/12 11:33:30;;;;;;;2.47;1.30;;;20.40;41.80;;;;;;5001145;28;20030;-64
2022/03/12 11:36:04;;;;;;;2.85;1.20;;;20.40;42.30;;;;;;5000911;28;20045;-67
2022/03/12 11:38:29;;;;;;;2.05;1.08;;;20.40;41.80;;;;;;4997306;28;20026;-67
2022/03/12 11:41:20;;;;;;;2.15;1.40;;;20.50;41.80;;;;;;5001893;28;20037;-67
2022/03/12 11:43:47;;;;;;;3.38;1.33;;;20.40;41.80;;;;;;5000820;28;20105;-68
2022/03/12 11:46:14;;;;;;;2.05;1.10;;;20.40;41.80;;;;;;5000356;28;20033;-66
2022/03/12 11:48:41;;;;;;;1.83;1.02;;;20.50;41.80;;;;;;5001675;28;20029;-67
2022/03/12 11:51:21;;;;;;;2.08;0.90;;;20.50;41.80;;;;;;4995813;28;20037;-67
2022/03/12 11:53:48;;;;;;;2.55;1.13;;;20.40;41.80;;;;;;4999138;28;20097;-68
2022/03/12 11:56:15;;;;;;;2.13;0.90;;;20.50;42.40;;;;;;5000138;28;20099;-66
2022/03/12 11:58:41;;;;;;;2.80;1.15;;;20.50;41.80;;;;;;4998039;28;20117;-67
2022/03/12 12:01:06;;;;;;;3.00;1.25;;;20.50;41.80;;;;;;4996478;28;21065;-67
2022/03/12 12:03:32;;;;;;;2.22;1.27;;;20.50;41.90;;;;;;5000407;28;20128;-67
2022/03/12 12:05:58;;;;;;;1.85;1.10;;;20.50;42.00;;;;;;4998698;28;20121;-67
2022/03/12 12:08:25;;;;;;;2.03;1.02;;;20.50;42.10;;;;;;4999516;28;20018;-62
2022/03/12 12:10:54;;;;;;;2.85;1.17;;;20.50;42.10;;;;;;5000794;28;20037;-67
2022/03/12 12:13:21;;;;;;;4.30;1.17;;;20.50;42.20;;;;;;5000360;28;20053;-63
2022/03/12 12:15:47;;;;;;;1.90;1.17;;;20.60;42.30;;;;;;5001641;28;20127;-66
2022/03/12 12:18:13;;;;;;;2.10;1.13;;;20.50;42.20;;;;;;5002039;28;20751;-63
2022/03/12 12:20:40;;;;;;;2.38;1.10;;;20.60;42.30;;;;;;5001375;28;20172;-67
2022/03/12 12:23:12;;;;;;;2.53;1.10;;;20.60;42.30;;;;;;4998910;28;20585;-66
2022/03/12 12:25:39;;;;;;;1.98;1.02;;;20.50;42.20;;;;;;5001125;28;20091;-67
2022/03/12 12:28:17;;;;;;;1.83;1.05;;;20.50;42.20;;;;;;4995165;28;20026;-66
2022/03/12 12:30:48;;;;;;;3.67;1.20;;;20.50;42.20;;;;;;5002334;28;20041;-66
2022/03/12 12:33:18;;;;;;;2.15;1.02;;;20.50;42.20;;;;;;4999859;28;20026;-63
2022/03/12 12:35:46;;;;;;;1.60;1.10;;;20.60;42.30;;;;;;5000919;28;20037;-67
2022/03/12 12:38:14;;;;;;;2.60;1.02;;;20.60;42.30;;;;;;4996937;28;20045;-66
2022/03/12 12:40:53;;;;;;;1.92;1.00;;;20.60;42.20;;;;;;5000428;28;20100;-65
2022/03/12 12:43:30;;;;;;;1.92;1.00;;;20.60;42.20;;;;;;5000438;28;20398;-66
2022/03/12 12:45:56;;;;;;;1.83;1.08;;;20.60;42.20;;;;;;5001079;28;20038;-66
2022/03/12 12:48:34;;;;;;;2.58;1.20;;;20.60;42.10;;;;;;4997293;28;20585;-65